createdAt,value
2022-10-18T00:02:58.062Z,102180.41
2022-10-18T00:07:59.835Z,102174.91
2022-10-18T00:13:01.243Z,102170.47
2022-10-18T00:18:03.143Z,102172.31
2022-10-18T00:23:04.572Z,102183.53
2022-10-18T00:28:06.047Z,102171.66
2022-10-18T00:33:07.475Z,102184.47
2022-10-18T00:38:08.854Z,102188.53
2022-10-18T00:43:15.897Z,102181.59
2022-10-18T00:48:20.773Z,102188.44
2022-10-18T00:53:23.633Z,102183.94
2022-10-18T00:58:25.400Z,102181.25
2022-10-18T01:03:26.873Z,102177.72
2022-10-18T01:08:44.904Z,102184.47
2022-10-18T01:14:01.840Z,102179.94
2022-10-18T01:19:12.161Z,102197.03
2022-10-18T01:24:36.824Z,102191.81
2022-10-18T01:29:53.406Z,102190.09
2022-10-18T01:34:58.240Z,102184.94
2022-10-18T01:40:03.588Z,102190.91
2022-10-18T01:45:08.063Z,102182.16
2022-10-18T01:50:09.723Z,102189.69
2022-10-18T01:55:11.246Z,102185.44
2022-10-18T02:00:17.237Z,102192.25
2022-10-18T02:05:33.189Z,102198.22
2022-10-18T02:10:38.334Z,102180.66
2022-10-18T02:15:43.258Z,102185.91
2022-10-18T02:20:45.541Z,102188.38
2022-10-18T02:25:47.161Z,102192.53
2022-10-18T02:31:30.369Z,102186.28
2022-10-18T02:36:38.630Z,102192.06
2022-10-18T02:41:40.729Z,102186.41
2022-10-18T02:46:42.948Z,102186.13
2022-10-18T02:51:44.465Z,102189.34
2022-10-18T02:56:45.904Z,102188.16
2022-10-18T03:01:47.375Z,102187.91
2022-10-18T03:06:48.851Z,102193.75
2022-10-18T03:11:50.254Z,102193.47
2022-10-18T03:16:52.699Z,102202.16
2022-10-18T03:21:54.195Z,102205.63
2022-10-18T03:26:55.805Z,102191.53
2022-10-18T03:31:57.225Z,102204.75
2022-10-18T03:37:02.060Z,102199.47
2022-10-18T03:42:06.228Z,102202.16
2022-10-18T03:47:07.669Z,102205.53
2022-10-18T03:52:09.132Z,102204.44
2022-10-18T03:57:10.556Z,102198.25
2022-10-18T04:02:12.091Z,102200.63
2022-10-18T04:07:13.515Z,102198.19
2022-10-18T04:12:14.926Z,102196.69
2022-10-18T04:17:16.310Z,102197.28
2022-10-18T04:22:18.055Z,102199.63
2022-10-18T04:27:19.527Z,102198.75
2022-10-18T04:32:20.951Z,102198.66
2022-10-18T04:37:22.401Z,102194.63
2022-10-18T04:42:24.483Z,102188.06
2022-10-18T04:47:25.916Z,102195.41
2022-10-18T04:52:27.372Z,102208.13
2022-10-18T04:57:28.913Z,102202.13
2022-10-18T05:02:30.798Z,102215.78
2022-10-18T05:07:32.704Z,102213.88
2022-10-18T05:12:34.596Z,102213.47
2022-10-18T05:17:36.632Z,102223.53
2022-10-18T05:22:38.211Z,102221.97
2022-10-18T05:27:39.610Z,102215.28
2022-10-18T05:32:41.102Z,102217.88
2022-10-18T05:37:42.568Z,102218.00
2022-10-18T05:42:43.984Z,102218.91
2022-10-18T05:47:45.379Z,102229.47
2022-10-18T05:52:46.784Z,102241.34
2022-10-18T05:57:51.792Z,102248.41
2022-10-18T06:02:55.268Z,102254.63
2022-10-18T06:07:59.583Z,102259.69
2022-10-18T06:13:01.042Z,102265.94
2022-10-18T06:18:02.466Z,102268.69
2022-10-18T06:23:03.938Z,102278.50
2022-10-18T06:28:07.945Z,102275.91
2022-10-18T06:33:14.273Z,102283.88
2022-10-18T06:38:15.713Z,102295.19
2022-10-18T06:43:21.096Z,102295.13
2022-10-18T06:48:23.659Z,102299.44
2022-10-18T06:53:26.589Z,102311.47
2022-10-18T06:58:29.046Z,102333.94
2022-10-18T07:03:30.539Z,102330.22
2022-10-18T07:08:32.461Z,102352.94
2022-10-18T07:13:34.839Z,102348.06
2022-10-18T07:18:38.654Z,102354.88
2022-10-18T07:23:43.692Z,102361.66
2022-10-18T07:28:47.708Z,102373.81
2022-10-18T07:33:49.275Z,102372.16
2022-10-18T07:38:52.293Z,102368.22
2022-10-18T07:43:53.748Z,102382.13
2022-10-18T07:48:55.922Z,102381.19
2022-10-18T07:53:57.313Z,102389.63
2022-10-18T07:58:58.789Z,102394.69
2022-10-18T08:04:06.062Z,102387.44
2022-10-18T08:09:08.501Z,102401.94
2022-10-18T08:14:09.945Z,102411.38
2022-10-18T08:19:11.450Z,102416.03
2022-10-18T08:24:12.908Z,102414.41
2022-10-18T08:29:24.203Z,102423.31
2022-10-18T08:34:27.311Z,102429.28
2022-10-18T08:39:29.042Z,102424.25
2022-10-18T08:44:32.642Z,102432.34
2022-10-18T08:49:51.062Z,102431.84
2022-10-18T08:55:00.384Z,102420.78
2022-10-18T09:00:14.689Z,102421.41
2022-10-18T09:05:22.896Z,102416.25
2022-10-18T09:10:49.248Z,102413.16
2022-10-18T09:15:59.136Z,102414.16
2022-10-18T09:21:17.820Z,102410.97
2022-10-18T09:26:23.359Z,102420.56
2022-10-18T09:31:42.319Z,102426.34
2022-10-18T09:36:45.218Z,102420.13
2022-10-18T09:42:26.878Z,102419.78
2022-10-18T09:47:45.406Z,102434.97
2022-10-18T09:52:55.506Z,102440.66
2022-10-18T09:58:01.666Z,102446.06
2022-10-18T10:03:11.070Z,102447.38
2022-10-18T10:08:12.661Z,102443.63
2022-10-18T10:13:22.904Z,102449.19
2022-10-18T10:18:31.276Z,102449.50
2022-10-18T10:23:39.252Z,102455.66
2022-10-18T10:28:48.595Z,102471.19
2022-10-18T10:34:19.499Z,102494.34
2022-10-18T10:39:24.001Z,102540.78
2022-10-18T10:44:29.924Z,102618.13
2022-10-18T10:49:51.635Z,102653.47
2022-10-18T10:55:05.450Z,102655.78
2022-10-18T11:00:36.671Z,102650.53
2022-10-18T11:06:05.291Z,102657.03
2022-10-18T11:11:27.745Z,102656.63
2022-10-18T11:16:50.731Z,102671.16
2022-10-18T11:21:53.483Z,102660.19
2022-10-18T11:27:10.168Z,102667.63
2022-10-18T11:33:02.831Z,102662.00
2022-10-18T11:38:14.720Z,102655.97
2022-10-18T11:43:44.303Z,102668.09
2022-10-18T11:49:07.368Z,102648.50
2022-10-18T11:54:08.742Z,102648.16
2022-10-18T11:59:38.504Z,102652.28
2022-10-18T12:04:58.457Z,102643.66
2022-10-18T12:10:09.888Z,102637.94
2022-10-18T12:15:23.702Z,102637.25
2022-10-18T12:20:31.273Z,102641.03
2022-10-18T12:25:37.065Z,102642.56
2022-10-18T12:30:57.253Z,102639.94
2022-10-18T12:35:58.711Z,102630.41
2022-10-18T12:41:00.949Z,102644.13
2022-10-18T12:46:13.305Z,102636.41
2022-10-18T12:51:21.839Z,102632.50
2022-10-18T12:56:29.297Z,102628.91
2022-10-18T13:01:50.790Z,102645.44
2022-10-18T13:06:58.899Z,102621.03
2022-10-18T13:12:09.526Z,102624.59
2022-10-18T13:17:16.875Z,102612.94
2022-10-18T13:22:54.214Z,102604.28
2022-10-18T13:28:14.038Z,102604.38
2022-10-18T13:33:30.563Z,102599.09
2022-10-18T13:39:04.417Z,102595.13
2022-10-18T13:44:23.044Z,102590.13
2022-10-18T13:49:40.922Z,102602.94
2022-10-18T13:55:04.147Z,102618.44
2022-10-18T14:00:44.854Z,102625.25
2022-10-18T14:06:11.613Z,102625.25
2022-10-18T14:11:16.101Z,102625.31
2022-10-18T14:16:39.310Z,102620.53
2022-10-18T14:21:47.725Z,102623.94
2022-10-18T14:27:15.834Z,102629.31
2022-10-18T14:32:29.697Z,102628.81
2022-10-18T14:37:36.386Z,102628.97
2022-10-18T14:42:47.972Z,102621.66
2022-10-18T14:47:49.508Z,102628.41
2022-10-18T14:52:51.071Z,102631.00
2022-10-18T14:57:52.730Z,102632.22
2022-10-18T15:02:54.413Z,102639.00
2022-10-18T15:07:59.561Z,102635.31
2022-10-18T15:13:09.901Z,102636.53
2022-10-18T15:18:26.208Z,102636.44
2022-10-18T15:23:31.313Z,102630.94
2022-10-18T15:28:36.533Z,102630.25
2022-10-18T15:33:38.004Z,102630.50
2022-10-18T15:38:39.593Z,102644.16
2022-10-18T15:43:41.005Z,102644.41
2022-10-18T15:48:42.596Z,102648.97
2022-10-18T15:53:51.208Z,102663.72
2022-10-18T15:58:53.767Z,102662.75
2022-10-18T16:08:56.636Z,102670.94
2022-10-18T16:14:00.423Z,102671.38
2022-10-18T16:19:02.613Z,102682.59
2022-10-18T16:24:05.173Z,102678.00
2022-10-18T16:29:07.623Z,102675.25
2022-10-18T16:34:11.225Z,102674.47
2022-10-18T16:39:15.816Z,102677.91
2022-10-18T16:44:19.075Z,102676.22
2022-10-18T16:49:24.086Z,102671.16
2022-10-18T16:54:26.040Z,102680.22
2022-10-18T16:59:29.944Z,102679.06
2022-10-18T17:04:31.441Z,102680.81
2022-10-18T17:09:35.008Z,102691.56
2022-10-18T17:14:36.933Z,102690.19
2022-10-18T17:19:38.366Z,102688.13
2022-10-18T17:24:39.740Z,102691.78
2022-10-18T17:29:41.217Z,102706.84
2022-10-18T17:34:42.664Z,102700.66
2022-10-18T17:39:44.221Z,102703.97
2022-10-18T17:44:46.176Z,102700.63
2022-10-18T17:49:47.821Z,102701.91
2022-10-18T17:54:49.293Z,102710.41
2022-10-18T17:59:50.685Z,102711.88
2022-10-18T18:04:54.481Z,102722.34
2022-10-18T18:09:56.048Z,102728.47
2022-10-18T18:14:57.480Z,102730.91
2022-10-18T18:19:58.884Z,102733.22
2022-10-18T18:25:00.289Z,102726.69
2022-10-18T18:30:01.677Z,102722.91
2022-10-18T18:35:03.484Z,102720.31
2022-10-18T18:40:05.368Z,102722.66
2022-10-18T18:45:07.144Z,102719.75
2022-10-18T18:50:12.800Z,102727.78
2022-10-18T18:55:17.411Z,102720.38
2022-10-18T19:00:21.740Z,102718.84
2022-10-18T19:05:28.676Z,102725.78
2022-10-18T19:10:30.696Z,102726.66
2022-10-18T19:15:32.259Z,102724.88
2022-10-18T19:20:36.823Z,102718.59
2022-10-18T19:25:39.092Z,102722.94
2022-10-18T19:30:49.798Z,102727.88
2022-10-18T19:35:54.603Z,102728.34
2022-10-18T19:40:57.490Z,102718.94
2022-10-18T19:46:06.543Z,102718.75
2022-10-18T19:51:09.613Z,102717.03
2022-10-18T19:56:18.514Z,102709.75
2022-10-18T20:01:20.758Z,102710.69
2022-10-18T20:06:27.053Z,102699.94
2022-10-18T20:11:35.489Z,102706.00
2022-10-18T20:16:42.672Z,102717.94
2022-10-18T20:21:44.292Z,102721.66
2022-10-18T20:26:49.064Z,102729.56
2022-10-18T20:31:50.735Z,102723.75
2022-10-18T20:36:55.533Z,102721.47
2022-10-18T20:41:58.742Z,102725.53
2022-10-18T20:47:07.655Z,102723.16
2022-10-18T20:52:09.433Z,102713.63
2022-10-18T20:57:11.875Z,102702.66
2022-10-18T21:02:13.988Z,102702.72
2022-10-18T21:07:17.064Z,102701.22
2022-10-18T21:12:18.805Z,102696.09
2022-10-18T21:17:22.073Z,102702.09
2022-10-18T21:22:25.939Z,102687.59
2022-10-18T21:27:27.752Z,102703.22
2022-10-18T21:32:33.444Z,102708.38
2022-10-18T21:37:35.131Z,102704.53
2022-10-18T21:42:36.733Z,102699.03
2022-10-18T21:47:39.257Z,102707.25
2022-10-18T21:52:40.761Z,102698.84
2022-10-18T21:57:50.641Z,102713.72
2022-10-18T22:03:09.564Z,102716.00
2022-10-18T22:08:11.091Z,102706.28
2022-10-18T22:13:12.611Z,102704.63
2022-10-18T22:18:14.146Z,102696.13
2022-10-18T22:23:16.885Z,102696.94
2022-10-18T22:28:18.797Z,102707.72
2022-10-18T22:33:21.309Z,102696.94
2022-10-18T22:38:23.190Z,102707.50
2022-10-18T22:43:24.644Z,102701.34
2022-10-18T22:48:26.243Z,102697.72
2022-10-18T22:53:28.045Z,102697.19
2022-10-18T22:58:30.033Z,102693.34
2022-10-18T23:03:33.049Z,102692.38
2022-10-18T23:08:34.732Z,102699.28
2022-10-18T23:13:42.532Z,102695.81
2022-10-18T23:18:54.813Z,102698.75
2022-10-18T23:23:57.203Z,102688.19
2022-10-18T23:29:00.743Z,102695.09
2022-10-18T23:34:04.928Z,102708.28
2022-10-18T23:39:15.009Z,102689.03
2022-10-18T23:44:16.666Z,102696.78
2022-10-18T23:49:18.796Z,102694.63
2022-10-18T23:54:23.423Z,102703.19
2022-10-18T23:59:26.162Z,102705.81
